Accueil
METAR-TAF:

METAR-TAF

Aéroports :

Hahn, Allemagne

Aéroport de Francfort-Hahn

latitude: 49-57N, longitude: 007-16E, altitude: 491 m

Observation

Le bulletin a été fait il y a 38 minutes, à 04:20 UTC
Vent 5 kt de sud/sud-est
Température -3°C
Humidité 86%
Pression 1024 hPa
Visibilité 10 km ou plus
pas de nuages en-dessous de 1500 mètres et pas de cumulonimbus.

METAR: EDFH 180420Z 15005KT CAVOK M03/M05 Q1024

Heure: 05:58 (04:58 UTC)

Prévision

Le bulletin a été fait il y a 5 heures et 58 minutes, à 23:00 UTC
Prévision valable du 18 à 00 UTC au 18 à 24 UTC
Vent 4 kt de est/nord-est
Visibilité: 9000 m
Evoluant progressivement
du 18 à 00 UTC au 18 à 03 UTC
Vent 6 kt de sud-est

TAF: EDFH 172300Z 1800/1824 06004KT 9000 NSC BECMG 1800/1803 14006KT

Observations et prévisions météorologiques de plus de 4000 aéroports (messages METAR et TAF).

Les stations disponibles sont représentées par des disques jaunes et rouges sur la carte.

Passer la souris dessus pour voir le nom de la station.

Cliquer dessus pour voir les observations et prévisions météorologiques.

Pour changer de carte: cliquez sur les boutons verts avec une croix noire pour zoomer, sur le bouton vert avec un tiret pour effectuer un zoom arrière, ou sur les flèches vertes pour les cartes adjacentes.


METAR-TAF: